sensor_id;sensor_type;location;lat;lon;timestamp;pressure;altitude;pressure_sealevel;temperature;humidity
4576;BME280;2300;51.874;8.430;2023-02-12T00:02:25;102897.50;;;8.02;96.18
4576;BME280;2300;51.874;8.430;2023-02-12T00:04:51;102904.84;;;8.02;96.02
4576;BME280;2300;51.874;8.430;2023-02-12T00:07:29;102900.41;;;8.09;95.63
4576;BME280;2300;51.874;8.430;2023-02-12T00:09:55;102888.91;;;7.97;95.64
4576;BME280;2300;51.874;8.430;2023-02-12T00:12:22;102902.13;;;8.02;96.00
4576;BME280;2300;51.874;8.430;2023-02-12T00:14:50;102905.22;;;8.07;96.30
4576;BME280;2300;51.874;8.430;2023-02-12T00:17:16;102903.84;;;8.03;95.83
4576;BME280;2300;51.874;8.430;2023-02-12T00:19:43;102892.69;;;7.96;96.43
4576;BME280;2300;51.874;8.430;2023-02-12T00:22:09;102891.16;;;8.02;95.89
4576;BME280;2300;51.874;8.430;2023-02-12T00:24:36;102901.75;;;7.97;96.25
4576;BME280;2300;51.874;8.430;2023-02-12T00:27:02;102902.91;;;7.94;96.14
4576;BME280;2300;51.874;8.430;2023-02-12T00:29:28;102899.75;;;8.07;96.00
4576;BME280;2300;51.874;8.430;2023-02-12T00:31:56;102904.13;;;8.00;96.06
4576;BME280;2300;51.874;8.430;2023-02-12T00:34:23;102896.44;;;7.95;95.76
4576;BME280;2300;51.874;8.430;2023-02-12T00:36:49;102907.59;;;8.02;96.59
4576;BME280;2300;51.874;8.430;2023-02-12T00:39:15;102901.97;;;8.03;95.64
4576;BME280;2300;51.874;8.430;2023-02-12T00:41:42;102900.16;;;7.94;96.48
4576;BME280;2300;51.874;8.430;2023-02-12T00:44:08;102902.13;;;8.02;96.35
4576;BME280;2300;51.874;8.430;2023-02-12T00:46:35;102912.41;;;8.08;95.67
4576;BME280;2300;51.874;8.430;2023-02-12T00:49:02;102906.72;;;8.01;96.06
4576;BME280;2300;51.874;8.430;2023-02-12T00:51:29;102915.09;;;8.00;95.81
4576;BME280;2300;51.874;8.430;2023-02-12T00:53:55;102886.47;;;7.86;96.01
4576;BME280;2300;51.874;8.430;2023-02-12T00:56:22;102902.53;;;7.89;96.51
4576;BME280;2300;51.874;8.430;2023-02-12T00:58:48;102910.59;;;7.91;96.51
4576;BME280;2300;51.874;8.430;2023-02-12T01:01:15;102910.63;;;7.99;96.49
4576;BME280;2300;51.874;8.430;2023-02-12T01:03:41;102900.50;;;7.91;96.18
4576;BME280;2300;51.874;8.430;2023-02-12T01:06:09;102909.59;;;7.92;95.83
4576;BME280;2300;51.874;8.430;2023-02-12T01:08:36;102910.44;;;7.92;96.58
4576;BME280;2300;51.874;8.430;2023-02-12T01:11:04;102895.16;;;7.81;96.57
4576;BME280;2300;51.874;8.430;2023-02-12T01:13:31;102905.47;;;7.87;96.97
4576;BME280;2300;51.874;8.430;2023-02-12T01:16:04;102914.41;;;7.98;96.22
4576;BME280;2300;51.874;8.430;2023-02-12T01:18:32;102921.50;;;7.82;96.82
4576;BME280;2300;51.874;8.430;2023-02-12T01:20:59;102922.19;;;7.84;96.13
4576;BME280;2300;51.874;8.430;2023-02-12T01:23:27;102912.63;;;7.88;97.02
4576;BME280;2300;51.874;8.430;2023-02-12T01:25:53;102906.09;;;7.81;96.83
4576;BME280;2300;51.874;8.430;2023-02-12T01:28:20;102920.34;;;7.93;96.54
4576;BME280;2300;51.874;8.430;2023-02-12T01:30:46;102920.16;;;7.86;96.92
4576;BME280;2300;51.874;8.430;2023-02-12T01:33:12;102919.50;;;7.93;96.45
4576;BME280;2300;51.874;8.430;2023-02-12T01:35:39;102915.69;;;7.85;96.60
4576;BME280;2300;51.874;8.430;2023-02-12T01:38:05;102923.41;;;7.90;97.27
4576;BME280;2300;51.874;8.430;2023-02-12T01:40:34;102919.97;;;7.88;96.58
4576;BME280;2300;51.874;8.430;2023-02-12T01:43:02;102921.69;;;7.89;96.55
4576;BME280;2300;51.874;8.430;2023-02-12T01:45:52;102927.00;;;7.91;96.93
4576;BME280;2300;51.874;8.430;2023-02-12T01:48:21;102922.03;;;7.86;97.06
4576;BME280;2300;51.874;8.430;2023-02-12T01:50:49;102918.44;;;7.85;98.00
4576;BME280;2300;51.874;8.430;2023-02-12T01:53:18;102916.66;;;7.76;97.80
4576;BME280;2300;51.874;8.430;2023-02-12T01:55:50;102922.66;;;7.80;98.26
4576;BME280;2300;51.874;8.430;2023-02-12T01:58:18;102925.75;;;7.77;97.81
4576;BME280;2300;51.874;8.430;2023-02-12T02:00:45;102919.41;;;7.76;98.36
4576;BME280;2300;51.874;8.430;2023-02-12T02:03:12;102901.78;;;7.79;98.45
4576;BME280;2300;51.874;8.430;2023-02-12T02:05:43;102913.09;;;7.84;97.90
4576;BME280;2300;51.874;8.430;2023-02-12T02:08:11;102916.34;;;7.79;97.90
4576;BME280;2300;51.874;8.430;2023-02-12T02:10:38;102914.47;;;7.80;98.27
4576;BME280;2300;51.874;8.430;2023-02-12T02:13:06;102908.78;;;7.73;98.37
4576;BME280;2300;51.874;8.430;2023-02-12T02:15:54;102912.88;;;7.77;98.65
4576;BME280;2300;51.874;8.430;2023-02-12T02:18:27;102913.59;;;7.79;98.60
4576;BME280;2300;51.874;8.430;2023-02-12T02:21:18;102902.25;;;7.66;98.72
4576;BME280;2300;51.874;8.430;2023-02-12T02:24:13;102905.34;;;7.71;99.22
4576;BME280;2300;51.874;8.430;2023-02-12T02:27:01;102905.63;;;7.60;99.58
4576;BME280;2300;51.874;8.430;2023-02-12T02:29:49;102900.19;;;7.68;99.77
4576;BME280;2300;51.874;8.430;2023-02-12T02:32:23;102907.50;;;7.60;99.23
4576;BME280;2300;51.874;8.430;2023-02-12T02:34:56;102914.03;;;7.67;99.35
4576;BME280;2300;51.874;8.430;2023-02-12T02:37:27;102897.41;;;7.60;99.34
4576;BME280;2300;51.874;8.430;2023-02-12T02:39:59;102899.75;;;7.55;99.63
4576;BME280;2300;51.874;8.430;2023-02-12T02:42:37;102901.16;;;7.59;99.80
4576;BME280;2300;51.874;8.430;2023-02-12T02:45:09;102887.63;;;7.58;99.87
4576;BME280;2300;51.874;8.430;2023-02-12T02:47:40;102903.78;;;7.69;99.59
4576;BME280;2300;51.874;8.430;2023-02-12T02:50:12;102898.47;;;7.67;99.68
4576;BME280;2300;51.874;8.430;2023-02-12T02:52:43;102900.53;;;7.65;99.76
4576;BME280;2300;51.874;8.430;2023-02-12T02:55:13;102895.44;;;7.70;99.83
4576;BME280;2300;51.874;8.430;2023-02-12T02:57:45;102899.88;;;7.71;99.38
4576;BME280;2300;51.874;8.430;2023-02-12T03:00:17;102891.59;;;7.63;98.80
4576;BME280;2300;51.874;8.430;2023-02-12T03:02:50;102900.19;;;7.68;99.13
4576;BME280;2300;51.874;8.430;2023-02-12T03:05:21;102899.50;;;7.66;99.33
4576;BME280;2300;51.874;8.430;2023-02-12T03:07:53;102906.66;;;7.67;99.01
4576;BME280;2300;51.874;8.430;2023-02-12T03:10:24;102891.00;;;7.52;99.40
4576;BME280;2300;51.874;8.430;2023-02-12T03:12:54;102902.16;;;7.58;99.43
4576;BME280;2300;51.874;8.430;2023-02-12T03:15:28;102897.91;;;7.56;99.97
4576;BME280;2300;51.874;8.430;2023-02-12T03:17:58;102896.88;;;7.57;99.59
4576;BME280;2300;51.874;8.430;2023-02-12T03:20:28;102896.41;;;7.61;99.50
4576;BME280;2300;51.874;8.430;2023-02-12T03:22:57;102890.94;;;7.61;99.09
4576;BME280;2300;51.874;8.430;2023-02-12T03:25:32;102893.81;;;7.60;98.84
4576;BME280;2300;51.874;8.430;2023-02-12T03:28:02;102886.78;;;7.57;98.80
4576;BME280;2300;51.874;8.430;2023-02-12T03:30:37;102894.19;;;7.65;98.58
4576;BME280;2300;51.874;8.430;2023-02-12T03:33:15;102892.47;;;7.64;98.82
4576;BME280;2300;51.874;8.430;2023-02-12T03:35:49;102896.69;;;7.58;98.89
4576;BME280;2300;51.874;8.430;2023-02-12T03:38:26;102895.47;;;7.53;99.11
4576;BME280;2300;51.874;8.430;2023-02-12T03:40:59;102893.28;;;7.56;99.26
4576;BME280;2300;51.874;8.430;2023-02-12T03:43:30;102884.72;;;7.51;98.80
4576;BME280;2300;51.874;8.430;2023-02-12T03:46:01;102884.75;;;7.59;98.87
4576;BME280;2300;51.874;8.430;2023-02-12T03:48:36;102882.59;;;7.45;98.88
4576;BME280;2300;51.874;8.430;2023-02-12T03:51:15;102888.28;;;7.52;98.57
4576;BME280;2300;51.874;8.430;2023-02-12T03:53:44;102886.00;;;7.47;99.31
4576;BME280;2300;51.874;8.430;2023-02-12T03:56:13;102895.72;;;7.41;99.12
4576;BME280;2300;51.874;8.430;2023-02-12T03:58:42;102885.44;;;7.35;98.81
4576;BME280;2300;51.874;8.430;2023-02-12T04:01:09;102888.59;;;7.49;99.10
4576;BME280;2300;51.874;8.430;2023-02-12T04:03:39;102906.72;;;7.50;99.09
4576;BME280;2300;51.874;8.430;2023-02-12T04:06:18;102906.81;;;7.40;99.51
4576;BME280;2300;51.874;8.430;2023-02-12T04:08:45;102905.75;;;7.33;99.49
4576;BME280;2300;51.874;8.430;2023-02-12T04:11:21;102916.38;;;7.36;99.66
4576;BME280;2300;51.874;8.430;2023-02-12T04:14:00;102921.84;;;7.36;100.00
4576;BME280;2300;51.874;8.430;2023-02-12T04:16:35;102915.50;;;7.35;100.00
4576;BME280;2300;51.874;8.430;2023-02-12T04:19:09;102925.59;;;7.35;100.00
4576;BME280;2300;51.874;8.430;2023-02-12T04:21:45;102914.66;;;7.17;100.00
4576;BME280;2300;51.874;8.430;2023-02-12T04:24:17;102914.75;;;7.25;100.00
4576;BME280;2300;51.874;8.430;2023-02-12T04:26:48;102931.69;;;7.29;100.00
4576;BME280;2300;51.874;8.430;2023-02-12T04:29:24;102935.88;;;7.41;100.00
4576;BME280;2300;51.874;8.430;2023-02-12T04:31:54;102932.59;;;7.37;100.00
4576;BME280;2300;51.874;8.430;2023-02-12T04:34:28;102930.44;;;7.41;99.99
4576;BME280;2300;51.874;8.430;2023-02-12T04:37:02;102939.47;;;7.41;99.63
4576;BME280;2300;51.874;8.430;2023-02-12T04:39:33;102936.72;;;7.41;99.50
4576;BME280;2300;51.874;8.430;2023-02-12T04:42:02;102942.19;;;7.41;99.36
4576;BME280;2300;51.874;8.430;2023-02-12T04:44:30;102959.16;;;7.45;99.94
4576;BME280;2300;51.874;8.430;2023-02-12T04:46:57;102951.34;;;7.50;99.59
4576;BME280;2300;51.874;8.430;2023-02-12T04:49:26;102958.19;;;7.54;99.07
4576;BME280;2300;51.874;8.430;2023-02-12T04:51:52;102962.03;;;7.43;99.80
4576;BME280;2300;51.874;8.430;2023-02-12T04:54:19;102949.19;;;7.36;99.60
4576;BME280;2300;51.874;8.430;2023-02-12T04:56:46;102953.31;;;7.40;100.00
4576;BME280;2300;51.874;8.430;2023-02-12T04:59:14;102950.56;;;7.40;100.00
4576;BME280;2300;51.874;8.430;2023-02-12T05:01:41;102959.78;;;7.39;100.00
4576;BME280;2300;51.874;8.430;2023-02-12T05:04:10;102955.25;;;7.30;100.00
4576;BME280;2300;51.874;8.430;2023-02-12T05:06:39;102951.28;;;7.24;100.00
4576;BME280;2300;51.874;8.430;2023-02-12T05:09:07;102958.16;;;7.28;100.00
4576;BME280;2300;51.874;8.430;2023-02-12T05:11:34;102949.56;;;7.23;100.00
4576;BME280;2300;51.874;8.430;2023-02-12T05:14:00;102951.28;;;7.24;100.00
4576;BME280;2300;51.874;8.430;2023-02-12T05:16:27;102955.03;;;7.23;100.00
4576;BME280;2300;51.874;8.430;2023-02-12T05:18:53;102961.44;;;7.14;100.00
4576;BME280;2300;51.874;8.430;2023-02-12T05:21:19;102966.56;;;7.17;100.00
4576;BME280;2300;51.874;8.430;2023-02-12T05:23:47;102961.13;;;7.17;100.00
4576;BME280;2300;51.874;8.430;2023-02-12T05:26:15;102951.66;;;7.12;100.00
4576;BME280;2300;51.874;8.430;2023-02-12T05:28:42;102950.97;;;7.10;100.00
4576;BME280;2300;51.874;8.430;2023-02-12T05:31:10;102959.38;;;7.16;100.00
4576;BME280;2300;51.874;8.430;2023-02-12T05:33:38;102953.63;;;7.19;100.00
4576;BME280;2300;51.874;8.430;2023-02-12T05:36:08;102959.25;;;7.18;100.00
4576;BME280;2300;51.874;8.430;2023-02-12T05:38:35;102959.38;;;7.16;100.00
4576;BME280;2300;51.874;8.430;2023-02-12T05:41:05;102946.28;;;7.20;100.00
4576;BME280;2300;51.874;8.430;2023-02-12T05:43:32;102958.84;;;7.13;100.00
4576;BME280;2300;51.874;8.430;2023-02-12T05:45:59;102959.56;;;7.15;100.00
4576;BME280;2300;51.874;8.430;2023-02-12T05:48:26;102952.28;;;7.06;100.00
4576;BME280;2300;51.874;8.430;2023-02-12T05:51:00;102959.56;;;7.15;100.00
4576;BME280;2300;51.874;8.430;2023-02-12T05:53:27;102940.28;;;6.98;100.00
4576;BME280;2300;51.874;8.430;2023-02-12T05:55:53;102958.69;;;7.14;100.00
4576;BME280;2300;51.874;8.430;2023-02-12T05:58:21;102959.38;;;7.16;100.00
4576;BME280;2300;51.874;8.430;2023-02-12T06:00:47;102967.59;;;7.16;100.00
4576;BME280;2300;51.874;8.430;2023-02-12T06:03:14;102961.91;;;7.10;100.00
4576;BME280;2300;51.874;8.430;2023-02-12T06:05:40;102963.78;;;7.09;100.00
4576;BME280;2300;51.874;8.430;2023-02-12T06:08:06;102963.19;;;7.06;100.00
4576;BME280;2300;51.874;8.430;2023-02-12T06:10:33;102963.03;;;6.89;100.00
4576;BME280;2300;51.874;8.430;2023-02-12T06:12:59;102959.00;;;6.93;100.00
4576;BME280;2300;51.874;8.430;2023-02-12T06:15:27;102960.53;;;6.96;100.00
4576;BME280;2300;51.874;8.430;2023-02-12T06:17:53;102958.78;;;7.05;100.00
4576;BME280;2300;51.874;8.430;2023-02-12T06:20:20;102960.88;;;7.11;100.00
4576;BME280;2300;51.874;8.430;2023-02-12T06:22:46;102960.44;;;7.15;100.00
4576;BME280;2300;51.874;8.430;2023-02-12T06:25:15;102956.03;;;7.05;100.00
4576;BME280;2300;51.874;8.430;2023-02-12T06:27:41;102962.34;;;7.05;100.00
4576;BME280;2300;51.874;8.430;2023-02-12T06:30:10;102960.41;;;6.97;100.00
4576;BME280;2300;51.874;8.430;2023-02-12T06:32:38;102966.41;;;7.01;100.00
4576;BME280;2300;51.874;8.430;2023-02-12T06:35:05;102972.72;;;7.01;100.00
4576;BME280;2300;51.874;8.430;2023-02-12T06:37:31;102965.88;;;6.97;100.00
4576;BME280;2300;51.874;8.430;2023-02-12T06:40:01;102970.22;;;6.90;100.00
4576;BME280;2300;51.874;8.430;2023-02-12T06:42:27;102973.66;;;6.92;100.00
4576;BME280;2300;51.874;8.430;2023-02-12T06:44:54;102967.34;;;6.92;100.00
4576;BME280;2300;51.874;8.430;2023-02-12T06:47:20;102974.28;;;6.86;100.00
4576;BME280;2300;51.874;8.430;2023-02-12T06:49:48;102971.22;;;6.89;100.00
4576;BME280;2300;51.874;8.430;2023-02-12T06:52:14;102980.28;;;6.90;100.00
4576;BME280;2300;51.874;8.430;2023-02-12T06:54:41;102973.75;;;6.73;100.00
4576;BME280;2300;51.874;8.430;2023-02-12T06:57:08;102985.19;;;6.86;100.00
4576;BME280;2300;51.874;8.430;2023-02-12T06:59:35;102983.50;;;6.76;100.00
4576;BME280;2300;51.874;8.430;2023-02-12T07:02:01;102990.66;;;6.86;100.00
4576;BME280;2300;51.874;8.430;2023-02-12T07:04:27;102988.94;;;6.85;100.00
4576;BME280;2300;51.874;8.430;2023-02-12T07:06:55;102998.31;;;6.83;100.00
4576;BME280;2300;51.874;8.430;2023-02-12T07:09:22;103001.19;;;6.81;100.00
4576;BME280;2300;51.874;8.430;2023-02-12T07:11:48;103007.06;;;6.86;100.00
4576;BME280;2300;51.874;8.430;2023-02-12T07:14:16;103007.38;;;6.83;100.00
4576;BME280;2300;51.874;8.430;2023-02-12T07:16:44;103004.63;;;6.83;100.00
4576;BME280;2300;51.874;8.430;2023-02-12T07:19:12;103006.59;;;6.91;100.00
4576;BME280;2300;51.874;8.430;2023-02-12T07:21:39;103012.31;;;6.97;100.00
4576;BME280;2300;51.874;8.430;2023-02-12T07:24:09;103019.97;;;7.12;100.00
4576;BME280;2300;51.874;8.430;2023-02-12T07:26:37;103023.91;;;7.09;100.00
4576;BME280;2300;51.874;8.430;2023-02-12T07:29:04;103019.69;;;7.15;100.00
4576;BME280;2300;51.874;8.430;2023-02-12T07:31:30;103018.09;;;7.12;100.00
4576;BME280;2300;51.874;8.430;2023-02-12T07:33:57;103028.69;;;7.25;100.00
4576;BME280;2300;51.874;8.430;2023-02-12T07:36:25;103020.38;;;7.17;100.00
4576;BME280;2300;51.874;8.430;2023-02-12T07:38:52;103037.88;;;7.24;100.00
4576;BME280;2300;51.874;8.430;2023-02-12T07:41:22;103042.75;;;7.30;100.00
4576;BME280;2300;51.874;8.430;2023-02-12T07:43:52;103038.28;;;7.46;100.00
4576;BME280;2300;51.874;8.430;2023-02-12T07:46:22;103035.00;;;7.43;100.00
4576;BME280;2300;51.874;8.430;2023-02-12T07:48:50;103046.72;;;7.53;100.00
4576;BME280;2300;51.874;8.430;2023-02-12T07:51:18;103056.72;;;7.62;100.00
4576;BME280;2300;51.874;8.430;2023-02-12T07:53:44;103052.72;;;7.74;100.00
4576;BME280;2300;51.874;8.430;2023-02-12T07:56:12;103061.56;;;7.68;100.00
4576;BME280;2300;51.874;8.430;2023-02-12T07:58:41;103058.81;;;7.68;100.00
4576;BME280;2300;51.874;8.430;2023-02-12T08:01:13;103050.47;;;7.70;100.00
4576;BME280;2300;51.874;8.430;2023-02-12T08:03:41;103057.25;;;7.83;100.00
4576;BME280;2300;51.874;8.430;2023-02-12T08:06:08;103055.56;;;7.82;100.00
4576;BME280;2300;51.874;8.430;2023-02-12T08:08:35;103062.09;;;7.89;99.92
4576;BME280;2300;51.874;8.430;2023-02-12T08:11:03;103064.81;;;7.89;99.71
4576;BME280;2300;51.874;8.430;2023-02-12T08:13:30;103056.63;;;7.89;99.20
4576;BME280;2300;51.874;8.430;2023-02-12T08:16:00;103068.22;;;8.09;99.20
4576;BME280;2300;51.874;8.430;2023-02-12T08:18:27;103067.44;;;8.17;98.59
4576;BME280;2300;51.874;8.430;2023-02-12T08:20:53;103063.22;;;8.22;98.60
4576;BME280;2300;51.874;8.430;2023-02-12T08:23:20;103077.41;;;8.44;98.10
4576;BME280;2300;51.874;8.430;2023-02-12T08:25:46;103070.94;;;8.27;97.30
4576;BME280;2300;51.874;8.430;2023-02-12T08:28:13;103080.91;;;8.36;97.70
4576;BME280;2300;51.874;8.430;2023-02-12T08:30:39;103081.94;;;8.35;96.80
4576;BME280;2300;51.874;8.430;2023-02-12T08:33:07;103077.75;;;8.23;97.20
4576;BME280;2300;51.874;8.430;2023-02-12T08:35:33;103080.63;;;8.39;97.37
4576;BME280;2300;51.874;8.430;2023-02-12T08:38:00;103077.00;;;8.64;97.51
4576;BME280;2300;51.874;8.430;2023-02-12T08:40:26;103084.66;;;8.61;96.29
4576;BME280;2300;51.874;8.430;2023-02-12T08:42:53;103086.63;;;8.68;96.30
4576;BME280;2300;51.874;8.430;2023-02-12T08:45:19;103083.50;;;8.89;95.86
4576;BME280;2300;51.874;8.430;2023-02-12T08:47:46;103081.13;;;8.94;94.87
4576;BME280;2300;51.874;8.430;2023-02-12T08:50:15;103083.84;;;8.94;94.25
4576;BME280;2300;51.874;8.430;2023-02-12T08:52:41;103088.03;;;9.06;94.11
4576;BME280;2300;51.874;8.430;2023-02-12T08:55:08;103087.16;;;9.06;93.32
4576;BME280;2300;51.874;8.430;2023-02-12T08:57:35;103090.28;;;9.19;93.31
4576;BME280;2300;51.874;8.430;2023-02-12T09:00:02;103088.97;;;9.31;92.12
4576;BME280;2300;51.874;8.430;2023-02-12T09:02:29;103082.19;;;9.09;91.52
4576;BME280;2300;51.874;8.430;2023-02-12T09:04:55;103093.38;;;9.16;91.93
4576;BME280;2300;51.874;8.430;2023-02-12T09:07:23;103094.41;;;9.23;91.32
4576;BME280;2300;51.874;8.430;2023-02-12T09:09:50;103092.72;;;9.30;91.52
4576;BME280;2300;51.874;8.430;2023-02-12T09:12:16;103088.47;;;9.44;90.80
4576;BME280;2300;51.874;8.430;2023-02-12T09:14:43;103092.22;;;9.27;90.47
4576;BME280;2300;51.874;8.430;2023-02-12T09:17:09;103095.47;;;9.22;89.97
4576;BME280;2300;51.874;8.430;2023-02-12T09:19:35;103099.56;;;9.26;90.24
4576;BME280;2300;51.874;8.430;2023-02-12T09:22:02;103097.34;;;9.22;89.93
4576;BME280;2300;51.874;8.430;2023-02-12T09:24:30;103098.94;;;9.40;89.80
4576;BME280;2300;51.874;8.430;2023-02-12T09:26:57;103105.63;;;9.38;88.87
4576;BME280;2300;51.874;8.430;2023-02-12T09:29:23;103091.25;;;9.52;89.39
4576;BME280;2300;51.874;8.430;2023-02-12T09:31:50;103104.97;;;9.52;89.18
4576;BME280;2300;51.874;8.430;2023-02-12T09:34:16;103085.25;;;9.65;89.71
4576;BME280;2300;51.874;8.430;2023-02-12T09:36:43;103099.34;;;9.86;88.75
4576;BME280;2300;51.874;8.430;2023-02-12T09:39:09;103107.97;;;10.23;88.28
4576;BME280;2300;51.874;8.430;2023-02-12T09:42:13;103107.28;;;10.46;86.89
4576;BME280;2300;51.874;8.430;2023-02-12T09:44:49;103110.38;;;10.34;86.00
4576;BME280;2300;51.874;8.430;2023-02-12T09:47:22;103098.84;;;10.39;86.08
4576;BME280;2300;51.874;8.430;2023-02-12T09:50:02;103108.31;;;10.28;85.79
4576;BME280;2300;51.874;8.430;2023-02-12T09:52:34;103113.78;;;10.45;85.53
4576;BME280;2300;51.874;8.430;2023-02-12T09:55:02;103116.16;;;10.64;86.78
4576;BME280;2300;51.874;8.430;2023-02-12T09:57:32;103119.13;;;11.01;84.94
4576;BME280;2300;51.874;8.430;2023-02-12T10:00:03;103117.41;;;11.00;83.17
4576;BME280;2300;51.874;8.430;2023-02-12T10:02:34;103125.09;;;10.66;83.56
4576;BME280;2300;51.874;8.430;2023-02-12T10:05:01;103123.84;;;10.68;83.60
4576;BME280;2300;51.874;8.430;2023-02-12T10:07:45;103105.97;;;10.80;82.95
4576;BME280;2300;51.874;8.430;2023-02-12T10:10:25;103111.75;;;11.02;82.35
4576;BME280;2300;51.874;8.430;2023-02-12T10:12:59;103110.94;;;10.85;83.17
4576;BME280;2300;51.874;8.430;2023-02-12T10:15:34;103118.84;;;10.80;81.65
4576;BME280;2300;51.874;8.430;2023-02-12T10:18:19;103115.13;;;10.65;82.02
4576;BME280;2300;51.874;8.430;2023-02-12T10:20:54;103102.78;;;10.53;81.37
4576;BME280;2300;51.874;8.430;2023-02-12T10:23:40;103115.16;;;10.57;81.57
4576;BME280;2300;51.874;8.430;2023-02-12T10:26:18;103124.75;;;10.61;81.58
4576;BME280;2300;51.874;8.430;2023-02-12T10:28:48;103123.69;;;10.70;81.85
4576;BME280;2300;51.874;8.430;2023-02-12T10:31:18;103121.16;;;10.60;81.35
4576;BME280;2300;51.874;8.430;2023-02-12T10:33:49;103119.22;;;10.69;81.93
4576;BME280;2300;51.874;8.430;2023-02-12T10:36:26;103118.25;;;10.46;81.92
4576;BME280;2300;51.874;8.430;2023-02-12T10:38:58;103117.19;;;10.55;82.40
4576;BME280;2300;51.874;8.430;2023-02-12T10:41:27;103118.59;;;10.42;82.08
4576;BME280;2300;51.874;8.430;2023-02-12T10:43:56;103108.31;;;10.28;82.78
4576;BME280;2300;51.874;8.430;2023-02-12T10:46:23;103121.34;;;10.34;81.86
4576;BME280;2300;51.874;8.430;2023-02-12T10:48:52;103117.22;;;10.14;81.73
4576;BME280;2300;51.874;8.430;2023-02-12T10:51:33;103111.03;;;10.12;82.75
4576;BME280;2300;51.874;8.430;2023-02-12T10:54:36;103099.34;;;10.18;83.54
4576;BME280;2300;51.874;8.430;2023-02-12T10:57:08;103104.16;;;10.49;83.14
4576;BME280;2300;51.874;8.430;2023-02-12T10:59:38;103110.06;;;10.84;82.87
4576;BME280;2300;51.874;8.430;2023-02-12T11:02:19;103103.19;;;10.89;82.27
4576;BME280;2300;51.874;8.430;2023-02-12T11:04:47;103108.13;;;11.01;81.22
4576;BME280;2300;51.874;8.430;2023-02-12T11:07:14;103099.97;;;10.77;80.52
4576;BME280;2300;51.874;8.430;2023-02-12T11:09:43;103097.59;;;10.66;79.57
4576;BME280;2300;51.874;8.430;2023-02-12T11:12:20;103095.91;;;10.49;80.86
4576;BME280;2300;51.874;8.430;2023-02-12T11:14:52;103103.78;;;10.60;82.01
4576;BME280;2300;51.874;8.430;2023-02-12T11:17:24;103100.94;;;10.29;81.57
4576;BME280;2300;51.874;8.430;2023-02-12T11:20:17;103099.38;;;10.34;82.29
4576;BME280;2300;51.874;8.430;2023-02-12T11:22:50;103098.88;;;10.31;82.51
4576;BME280;2300;51.874;8.430;2023-02-12T11:25:17;103096.47;;;10.28;83.31
4576;BME280;2300;51.874;8.430;2023-02-12T11:27:44;103096.81;;;10.41;82.98
4576;BME280;2300;51.874;8.430;2023-02-12T11:30:15;103086.31;;;10.36;82.72
4576;BME280;2300;51.874;8.430;2023-02-12T11:32:42;103084.28;;;10.30;83.50
4576;BME280;2300;51.874;8.430;2023-02-12T11:35:12;103094.38;;;10.22;83.06
4576;BME280;2300;51.874;8.430;2023-02-12T11:37:41;103088.41;;;10.34;83.36
4576;BME280;2300;51.874;8.430;2023-02-12T11:40:15;103077.91;;;10.38;83.41
4576;BME280;2300;51.874;8.430;2023-02-12T11:42:46;103079.63;;;10.39;83.45
4576;BME280;2300;51.874;8.430;2023-02-12T11:45:17;103082.22;;;10.40;83.72
4576;BME280;2300;51.874;8.430;2023-02-12T11:47:45;103056.63;;;10.16;83.95
4576;BME280;2300;51.874;8.430;2023-02-12T11:50:23;103077.38;;;10.18;83.87
4576;BME280;2300;51.874;8.430;2023-02-12T11:52:52;103086.16;;;10.30;84.25
4576;BME280;2300;51.874;8.430;2023-02-12T11:55:21;103075.00;;;10.31;83.74
4576;BME280;2300;51.874;8.430;2023-02-12T11:57:51;103078.44;;;10.41;84.23
4576;BME280;2300;51.874;8.430;2023-02-12T12:00:22;103069.84;;;10.20;84.23
4576;BME280;2300;51.874;8.430;2023-02-12T12:02:56;103072.41;;;10.38;84.48
4576;BME280;2300;51.874;8.430;2023-02-12T12:05:35;103046.88;;;10.05;84.45
4576;BME280;2300;51.874;8.430;2023-02-12T12:08:06;103039.31;;;9.99;84.98
4576;BME280;2300;51.874;8.430;2023-02-12T12:10:40;103067.09;;;10.20;85.38
4576;BME280;2300;51.874;8.430;2023-02-12T12:13:12;103058.88;;;10.28;85.85
4576;BME280;2300;51.874;8.430;2023-02-12T12:15:44;103036.72;;;10.14;85.37
4576;BME280;2300;51.874;8.430;2023-02-12T12:18:36;103065.19;;;10.37;84.59
4576;BME280;2300;51.874;8.430;2023-02-12T12:21:35;103056.06;;;10.53;83.58
4576;BME280;2300;51.874;8.430;2023-02-12T12:24:09;103057.25;;;10.58;83.57
4576;BME280;2300;51.874;8.430;2023-02-12T12:26:39;103057.03;;;10.76;83.11
4576;BME280;2300;51.874;8.430;2023-02-12T12:29:12;103054.94;;;10.78;83.06
4576;BME280;2300;51.874;8.430;2023-02-12T12:31:44;103041.72;;;10.81;82.74
4576;BME280;2300;51.874;8.430;2023-02-12T12:34:14;103051.06;;;10.64;81.95
4576;BME280;2300;51.874;8.430;2023-02-12T12:36:55;103051.53;;;10.76;81.80
4576;BME280;2300;51.874;8.430;2023-02-12T12:39:33;103049.28;;;10.79;82.00
4576;BME280;2300;51.874;8.430;2023-02-12T12:42:32;103041.72;;;10.81;82.33
4576;BME280;2300;51.874;8.430;2023-02-12T12:45:16;103049.28;;;10.79;82.30
4576;BME280;2300;51.874;8.430;2023-02-12T12:47:59;103041.13;;;10.55;82.16
4576;BME280;2300;51.874;8.430;2023-02-12T12:50:41;103040.94;;;10.65;82.23
4576;BME280;2300;51.874;8.430;2023-02-12T12:53:20;103039.84;;;10.74;82.15
4576;BME280;2300;51.874;8.430;2023-02-12T12:56:13;103026.81;;;10.76;81.57
4576;BME280;2300;51.874;8.430;2023-02-12T12:58:52;103029.00;;;10.80;81.51
4576;BME280;2300;51.874;8.430;2023-02-12T13:01:39;103016.56;;;10.54;81.23
4576;BME280;2300;51.874;8.430;2023-02-12T13:04:29;103016.81;;;10.83;81.70
4576;BME280;2300;51.874;8.430;2023-02-12T13:07:13;103020.72;;;10.89;80.76
4576;BME280;2300;51.874;8.430;2023-02-12T13:09:59;103015.59;;;10.85;81.45
4576;BME280;2300;51.874;8.430;2023-02-12T13:12:44;103012.09;;;10.61;81.30
4576;BME280;2300;51.874;8.430;2023-02-12T13:15:21;103010.53;;;10.58;81.04
4576;BME280;2300;51.874;8.430;2023-02-12T13:17:56;103007.56;;;10.68;80.91
4576;BME280;2300;51.874;8.430;2023-02-12T13:20:35;103009.66;;;10.66;81.33
4576;BME280;2300;51.874;8.430;2023-02-12T13:23:09;103003.25;;;10.81;81.21
4576;BME280;2300;51.874;8.430;2023-02-12T13:25:40;103008.97;;;10.72;81.12
4576;BME280;2300;51.874;8.430;2023-02-12T13:28:13;102998.94;;;10.79;80.86
4576;BME280;2300;51.874;8.430;2023-02-12T13:30:44;103011.81;;;10.78;79.99
4576;BME280;2300;51.874;8.430;2023-02-12T13:33:16;103006.69;;;10.75;80.02
4576;BME280;2300;51.874;8.430;2023-02-12T13:35:48;103002.09;;;10.68;80.19